sensor_id;sensor_type;location;lat;lon;timestamp;pressure;altitude;pressure_sealevel;temperature;humidity
28181;BME280;15464;50.988;10.318;2023-07-28T00:01:35;97965.00;;;16.74;100.00
28181;BME280;15464;50.988;10.318;2023-07-28T00:04:02;97958.00;;;16.73;100.00
28181;BME280;15464;50.988;10.318;2023-07-28T00:06:33;97964.63;;;16.77;100.00
28181;BME280;15464;50.988;10.318;2023-07-28T00:09:01;97962.72;;;16.71;100.00
28181;BME280;15464;50.988;10.318;2023-07-28T00:11:28;97960.69;;;16.73;100.00
28181;BME280;15464;50.988;10.318;2023-07-28T00:13:54;97952.25;;;16.76;100.00
28181;BME280;15464;50.988;10.318;2023-07-28T00:16:21;97938.84;;;16.76;100.00
28181;BME280;15464;50.988;10.318;2023-07-28T00:18:48;97937.84;;;16.77;100.00
28181;BME280;15464;50.988;10.318;2023-07-28T00:21:14;97935.31;;;16.69;100.00
28181;BME280;15464;50.988;10.318;2023-07-28T00:23:41;97925.59;;;16.68;100.00
28181;BME280;15464;50.988;10.318;2023-07-28T00:26:10;97918.63;;;16.67;100.00
28181;BME280;15464;50.988;10.318;2023-07-28T00:28:37;97928.09;;;16.70;100.00
28181;BME280;15464;50.988;10.318;2023-07-28T00:31:04;97920.91;;;16.70;100.00
28181;BME280;15464;50.988;10.318;2023-07-28T00:33:30;97919.22;;;16.69;100.00
28181;BME280;15464;50.988;10.318;2023-07-28T00:35:57;97924.16;;;16.66;100.00
28181;BME280;15464;50.988;10.318;2023-07-28T00:38:24;97924.06;;;16.59;100.00
28181;BME280;15464;50.988;10.318;2023-07-28T00:40:51;97933.13;;;16.58;100.00
28181;BME280;15464;50.988;10.318;2023-07-28T00:43:18;97929.38;;;16.52;100.00
28181;BME280;15464;50.988;10.318;2023-07-28T00:45:45;97927.34;;;16.54;100.00
28181;BME280;15464;50.988;10.318;2023-07-28T00:48:13;97929.19;;;16.54;100.00
28181;BME280;15464;50.988;10.318;2023-07-28T00:50:45;97929.31;;;16.46;100.00
28181;BME280;15464;50.988;10.318;2023-07-28T00:53:12;97905.47;;;16.51;100.00
28181;BME280;15464;50.988;10.318;2023-07-28T00:55:38;97904.44;;;16.52;100.00
28181;BME280;15464;50.988;10.318;2023-07-28T00:58:05;97902.97;;;16.49;100.00
28181;BME280;15464;50.988;10.318;2023-07-28T01:00:32;97911.66;;;16.51;100.00
28181;BME280;15464;50.988;10.318;2023-07-28T01:02:58;97902.59;;;16.52;100.00
28181;BME280;15464;50.988;10.318;2023-07-28T01:05:57;97911.47;;;16.53;100.00
28181;BME280;15464;50.988;10.318;2023-07-28T01:11:14;97906.88;;;16.47;100.00
28181;BME280;15464;50.988;10.318;2023-07-28T01:13:41;97900.94;;;16.51;100.00
28181;BME280;15464;50.988;10.318;2023-07-28T01:16:08;97914.50;;;16.50;100.00
28181;BME280;15464;50.988;10.318;2023-07-28T01:18:35;97923.78;;;16.47;100.00
28181;BME280;15464;50.988;10.318;2023-07-28T01:21:05;97930.09;;;16.40;100.00
28181;BME280;15464;50.988;10.318;2023-07-28T01:26:37;97928.56;;;16.31;100.00
28181;BME280;15464;50.988;10.318;2023-07-28T01:29:05;97923.84;;;16.33;100.00
28181;BME280;15464;50.988;10.318;2023-07-28T01:31:33;97921.41;;;16.38;100.00
28181;BME280;15464;50.988;10.318;2023-07-28T01:33:59;97927.59;;;16.38;100.00
28181;BME280;15464;50.988;10.318;2023-07-28T01:36:26;97934.19;;;16.36;100.00
28181;BME280;15464;50.988;10.318;2023-07-28T01:38:53;97929.97;;;16.27;100.00
28181;BME280;15464;50.988;10.318;2023-07-28T01:41:20;97922.19;;;16.32;100.00
28181;BME280;15464;50.988;10.318;2023-07-28T01:43:47;97925.31;;;16.35;100.00
28181;BME280;15464;50.988;10.318;2023-07-28T01:46:13;97934.56;;;16.33;100.00
28181;BME280;15464;50.988;10.318;2023-07-28T01:48:40;97932.53;;;16.35;100.00
28181;BME280;15464;50.988;10.318;2023-07-28T01:51:07;97929.19;;;16.33;100.00
28181;BME280;15464;50.988;10.318;2023-07-28T01:53:34;97932.88;;;16.32;100.00
28181;BME280;15464;50.988;10.318;2023-07-28T01:56:00;97933.28;;;16.29;100.00
28181;BME280;15464;50.988;10.318;2023-07-28T01:58:27;97941.56;;;16.34;100.00
28181;BME280;15464;50.988;10.318;2023-07-28T02:00:54;97938.63;;;16.29;100.00
28181;BME280;15464;50.988;10.318;2023-07-28T02:03:21;97943.34;;;16.27;100.00
28181;BME280;15464;50.988;10.318;2023-07-28T02:05:47;97955.47;;;16.23;100.00
28181;BME280;15464;50.988;10.318;2023-07-28T02:08:14;97943.47;;;16.19;100.00
28181;BME280;15464;50.988;10.318;2023-07-28T02:10:42;97947.63;;;16.21;100.00
28181;BME280;15464;50.988;10.318;2023-07-28T02:13:09;97942.09;;;16.23;100.00
28181;BME280;15464;50.988;10.318;2023-07-28T02:15:36;97944.75;;;16.23;100.00
28181;BME280;15464;50.988;10.318;2023-07-28T02:18:06;97951.94;;;16.22;100.00
28181;BME280;15464;50.988;10.318;2023-07-28T02:20:33;97952.91;;;16.14;100.00
28181;BME280;15464;50.988;10.318;2023-07-28T02:23:02;97956.22;;;16.17;100.00
28181;BME280;15464;50.988;10.318;2023-07-28T02:25:29;97951.25;;;16.13;100.00
28181;BME280;15464;50.988;10.318;2023-07-28T02:27:57;97952.72;;;16.16;100.00
28181;BME280;15464;50.988;10.318;2023-07-28T02:30:24;97946.28;;;16.10;100.00
28181;BME280;15464;50.988;10.318;2023-07-28T02:32:50;97955.97;;;16.11;100.00
28181;BME280;15464;50.988;10.318;2023-07-28T02:35:17;97955.06;;;16.04;100.00
28181;BME280;15464;50.988;10.318;2023-07-28T02:37:46;97949.91;;;16.03;100.00
28181;BME280;15464;50.988;10.318;2023-07-28T02:40:13;97956.34;;;16.08;100.00
28181;BME280;15464;50.988;10.318;2023-07-28T02:42:40;97959.19;;;16.07;100.00
28181;BME280;15464;50.988;10.318;2023-07-28T02:45:07;97954.59;;;16.01;100.00
28181;BME280;15464;50.988;10.318;2023-07-28T02:47:34;97956.09;;;16.03;100.00
28181;BME280;15464;50.988;10.318;2023-07-28T02:50:01;97962.19;;;15.97;100.00
28181;BME280;15464;50.988;10.318;2023-07-28T02:52:27;97951.09;;;16.00;100.00
28181;BME280;15464;50.988;10.318;2023-07-28T02:54:55;97955.00;;;15.98;100.00
28181;BME280;15464;50.988;10.318;2023-07-28T02:57:21;97949.44;;;15.99;100.00
28181;BME280;15464;50.988;10.318;2023-07-28T02:59:48;97956.00;;;15.97;100.00
28181;BME280;15464;50.988;10.318;2023-07-28T03:02:15;97962.56;;;15.94;100.00
28181;BME280;15464;50.988;10.318;2023-07-28T03:04:41;97966.72;;;15.97;100.00
28181;BME280;15464;50.988;10.318;2023-07-28T03:07:08;97963.84;;;15.98;100.00
28181;BME280;15464;50.988;10.318;2023-07-28T03:09:35;97967.53;;;15.97;100.00
28181;BME280;15464;50.988;10.318;2023-07-28T03:12:01;97967.78;;;16.02;100.00
28181;BME280;15464;50.988;10.318;2023-07-28T03:14:29;97961.44;;;16.03;100.00
28181;BME280;15464;50.988;10.318;2023-07-28T03:16:56;97962.94;;;15.91;100.00
28181;BME280;15464;50.988;10.318;2023-07-28T03:19:22;97967.00;;;15.87;100.00
28181;BME280;15464;50.988;10.318;2023-07-28T03:21:49;97973.16;;;15.88;100.00
28181;BME280;15464;50.988;10.318;2023-07-28T03:24:16;97971.97;;;15.90;100.00
28181;BME280;15464;50.988;10.318;2023-07-28T03:26:43;97976.94;;;15.93;100.00
28181;BME280;15464;50.988;10.318;2023-07-28T03:29:09;97974.25;;;15.93;100.00
28181;BME280;15464;50.988;10.318;2023-07-28T03:31:36;97983.31;;;15.92;100.00
28181;BME280;15464;50.988;10.318;2023-07-28T03:34:03;97982.94;;;15.95;100.00
28181;BME280;15464;50.988;10.318;2023-07-28T03:36:30;97993.91;;;16.00;100.00
28181;BME280;15464;50.988;10.318;2023-07-28T03:38:57;97988.94;;;15.97;100.00
28181;BME280;15464;50.988;10.318;2023-07-28T03:41:24;97981.53;;;15.99;100.00
28181;BME280;15464;50.988;10.318;2023-07-28T03:43:51;97993.91;;;16.00;100.00
28181;BME280;15464;50.988;10.318;2023-07-28T03:46:17;97995.28;;;15.96;100.00
28181;BME280;15464;50.988;10.318;2023-07-28T03:48:44;97989.28;;;15.94;100.00
28181;BME280;15464;50.988;10.318;2023-07-28T03:51:11;97991.06;;;15.87;100.00
28181;BME280;15464;50.988;10.318;2023-07-28T03:53:37;97989.28;;;15.94;100.00
28181;BME280;15464;50.988;10.318;2023-07-28T03:56:04;97984.84;;;16.01;100.00
28181;BME280;15464;50.988;10.318;2023-07-28T03:58:31;97979.16;;;16.04;100.00
28181;BME280;15464;50.988;10.318;2023-07-28T04:00:58;97985.50;;;16.03;100.00
28181;BME280;15464;50.988;10.318;2023-07-28T04:03:25;97987.94;;;15.98;100.00
28181;BME280;15464;50.988;10.318;2023-07-28T04:05:51;97995.28;;;15.96;100.00
28181;BME280;15464;50.988;10.318;2023-07-28T04:08:18;97988.94;;;15.97;100.00
28181;BME280;15464;50.988;10.318;2023-07-28T04:10:45;98002.06;;;15.92;100.00
28181;BME280;15464;50.988;10.318;2023-07-28T04:13:12;97996.69;;;15.92;100.00
28181;BME280;15464;50.988;10.318;2023-07-28T04:15:39;98002.50;;;15.96;100.00
28181;BME280;15464;50.988;10.318;2023-07-28T04:18:05;97997.31;;;15.94;100.00
28181;BME280;15464;50.988;10.318;2023-07-28T04:20:32;97995.47;;;15.95;100.00
28181;BME280;15464;50.988;10.318;2023-07-28T04:22:59;98005.34;;;15.94;100.00
28181;BME280;15464;50.988;10.318;2023-07-28T04:25:26;98003.97;;;15.98;100.00
28181;BME280;15464;50.988;10.318;2023-07-28T04:27:53;98000.91;;;16.01;100.00
28181;BME280;15464;50.988;10.318;2023-07-28T04:30:21;97995.94;;;15.98;100.00
28181;BME280;15464;50.988;10.318;2023-07-28T04:32:48;97999.44;;;15.99;100.00
28181;BME280;15464;50.988;10.318;2023-07-28T04:35:14;98001.28;;;15.98;100.00
28181;BME280;15464;50.988;10.318;2023-07-28T04:37:41;98006.06;;;16.03;100.00
28181;BME280;15464;50.988;10.318;2023-07-28T04:40:08;97999.91;;;16.02;100.00
28181;BME280;15464;50.988;10.318;2023-07-28T04:42:35;97997.56;;;15.99;100.00
28181;BME280;15464;50.988;10.318;2023-07-28T04:45:03;97993.53;;;16.03;100.00
28181;BME280;15464;50.988;10.318;2023-07-28T04:47:30;97998.88;;;16.03;100.00
28181;BME280;15464;50.988;10.318;2023-07-28T04:49:56;97996.81;;;16.05;100.00
28181;BME280;15464;50.988;10.318;2023-07-28T04:52:23;97993.78;;;16.08;100.00
28181;BME280;15464;50.988;10.318;2023-07-28T04:54:50;98005.50;;;16.07;100.00
28181;BME280;15464;50.988;10.318;2023-07-28T04:57:17;98008.81;;;16.09;100.00
28181;BME280;15464;50.988;10.318;2023-07-28T04:59:45;98001.06;;;16.14;100.00
28181;BME280;15464;50.988;10.318;2023-07-28T05:02:11;98001.44;;;16.11;100.00
28181;BME280;15464;50.988;10.318;2023-07-28T05:04:38;98009.72;;;16.17;100.00
28181;BME280;15464;50.988;10.318;2023-07-28T05:07:05;98007.97;;;16.24;100.00
28181;BME280;15464;50.988;10.318;2023-07-28T05:09:32;98013.19;;;16.32;100.00
28181;BME280;15464;50.988;10.318;2023-07-28T05:11:58;98018.34;;;16.33;100.00
28181;BME280;15464;50.988;10.318;2023-07-28T05:14:25;98023.94;;;16.38;100.00
28181;BME280;15464;50.988;10.318;2023-07-28T05:16:52;98023.78;;;16.40;100.00
28181;BME280;15464;50.988;10.318;2023-07-28T05:19:19;98024.84;;;16.45;100.00
28181;BME280;15464;50.988;10.318;2023-07-28T05:21:45;98030.28;;;16.52;100.00
28181;BME280;15464;50.988;10.318;2023-07-28T05:24:12;98032.59;;;16.55;100.00
28181;BME280;15464;50.988;10.318;2023-07-28T05:26:39;98032.13;;;16.51;100.00
28181;BME280;15464;50.988;10.318;2023-07-28T05:29:05;98035.44;;;16.53;100.00
28181;BME280;15464;50.988;10.318;2023-07-28T05:31:32;98036.53;;;16.59;100.00
28181;BME280;15464;50.988;10.318;2023-07-28T05:33:59;98042.25;;;16.56;100.00
28181;BME280;15464;50.988;10.318;2023-07-28T05:36:26;98041.88;;;16.59;100.00
28181;BME280;15464;50.988;10.318;2023-07-28T05:38:52;98042.06;;;16.58;100.00
28181;BME280;15464;50.988;10.318;2023-07-28T05:41:20;98044.31;;;16.54;100.00
28181;BME280;15464;50.988;10.318;2023-07-28T05:43:46;98043.47;;;16.53;100.00
28181;BME280;15464;50.988;10.318;2023-07-28T05:46:17;98042.25;;;16.56;100.00
28181;BME280;15464;50.988;10.318;2023-07-28T05:48:44;98044.56;;;16.59;100.00
28181;BME280;15464;50.988;10.318;2023-07-28T05:51:10;98052.22;;;16.62;100.00
28181;BME280;15464;50.988;10.318;2023-07-28T05:53:37;98052.78;;;16.58;100.00
28181;BME280;15464;50.988;10.318;2023-07-28T05:56:04;98050.69;;;16.53;100.00
28181;BME280;15464;50.988;10.318;2023-07-28T05:58:31;98059.97;;;16.57;100.00
28181;BME280;15464;50.988;10.318;2023-07-28T06:00:57;98057.41;;;16.64;100.00
28181;BME280;15464;50.988;10.318;2023-07-28T06:03:24;98064.16;;;16.60;100.00
28181;BME280;15464;50.988;10.318;2023-07-28T06:05:52;98060.53;;;16.67;100.00
28181;BME280;15464;50.988;10.318;2023-07-28T06:08:18;98066.16;;;16.72;100.00
28181;BME280;15464;50.988;10.318;2023-07-28T06:10:45;98071.34;;;16.80;100.00
28181;BME280;15464;50.988;10.318;2023-07-28T06:13:12;98068.00;;;16.72;100.00
28181;BME280;15464;50.988;10.318;2023-07-28T06:15:39;98062.69;;;16.78;100.00
28181;BME280;15464;50.988;10.318;2023-07-28T06:18:07;98069.31;;;16.82;100.00
28181;BME280;15464;50.988;10.318;2023-07-28T06:20:34;98071.41;;;16.87;100.00
28181;BME280;15464;50.988;10.318;2023-07-28T06:23:01;98070.22;;;16.89;100.00
28181;BME280;15464;50.988;10.318;2023-07-28T06:25:27;98071.28;;;16.95;100.00
28181;BME280;15464;50.988;10.318;2023-07-28T06:27:54;98066.13;;;16.93;100.00
28181;BME280;15464;50.988;10.318;2023-07-28T06:30:21;98080.59;;;16.99;100.00
28181;BME280;15464;50.988;10.318;2023-07-28T06:32:48;98081.34;;;16.93;100.00
28181;BME280;15464;50.988;10.318;2023-07-28T06:35:15;98078.66;;;16.86;100.00
28181;BME280;15464;50.988;10.318;2023-07-28T06:37:41;98078.69;;;16.93;100.00
28181;BME280;15464;50.988;10.318;2023-07-28T06:40:08;98079.38;;;17.02;100.00
28181;BME280;15464;50.988;10.318;2023-07-28T06:42:36;98083.53;;;17.04;100.00
28181;BME280;15464;50.988;10.318;2023-07-28T06:45:03;98081.88;;;17.03;100.00
28181;BME280;15464;50.988;10.318;2023-07-28T06:47:30;98075.56;;;17.11;100.00
28181;BME280;15464;50.988;10.318;2023-07-28T06:49:57;98078.50;;;17.16;100.00
28181;BME280;15464;50.988;10.318;2023-07-28T06:52:24;98079.09;;;17.18;100.00
28181;BME280;15464;50.988;10.318;2023-07-28T06:54:51;98083.84;;;17.16;100.00
28181;BME280;15464;50.988;10.318;2023-07-28T06:57:17;98085.75;;;17.22;100.00
28181;BME280;15464;50.988;10.318;2023-07-28T06:59:44;98085.34;;;17.25;100.00
28181;BME280;15464;50.988;10.318;2023-07-28T07:02:11;98075.28;;;17.27;100.00
28181;BME280;15464;50.988;10.318;2023-07-28T07:04:38;98071.81;;;17.33;100.00
28181;BME280;15464;50.988;10.318;2023-07-28T07:07:05;98076.34;;;17.32;100.00
28181;BME280;15464;50.988;10.318;2023-07-28T07:09:31;98074.72;;;17.38;100.00
28181;BME280;15464;50.988;10.318;2023-07-28T07:11:58;98087.13;;;17.39;100.00
28181;BME280;15464;50.988;10.318;2023-07-28T07:14:25;98076.25;;;17.47;100.00
28181;BME280;15464;50.988;10.318;2023-07-28T07:16:52;98079.81;;;17.54;100.00
28181;BME280;15464;50.988;10.318;2023-07-28T07:19:18;98082.28;;;17.56;100.00
28181;BME280;15464;50.988;10.318;2023-07-28T07:21:45;98081.75;;;17.60;100.00
28181;BME280;15464;50.988;10.318;2023-07-28T07:24:15;98082.34;;;17.62;100.00
28181;BME280;15464;50.988;10.318;2023-07-28T07:26:42;98091.44;;;17.61;100.00
28181;BME280;15464;50.988;10.318;2023-07-28T07:29:08;98088.22;;;17.72;100.00
28181;BME280;15464;50.988;10.318;2023-07-28T07:31:39;98079.97;;;17.81;100.00
28181;BME280;15464;50.988;10.318;2023-07-28T07:34:05;98084.41;;;17.95;100.00
28181;BME280;15464;50.988;10.318;2023-07-28T07:36:32;98085.91;;;18.04;100.00
28181;BME280;15464;50.988;10.318;2023-07-28T07:38:59;98086.50;;;18.06;100.00
28181;BME280;15464;50.988;10.318;2023-07-28T07:41:26;98089.63;;;18.03;100.00
28181;BME280;15464;50.988;10.318;2023-07-28T07:43:54;98087.16;;;18.08;100.00
28181;BME280;15464;50.988;10.318;2023-07-28T07:46:22;98090.25;;;18.05;100.00
28181;BME280;15464;50.988;10.318;2023-07-28T07:48:49;98096.66;;;18.04;100.00
28181;BME280;15464;50.988;10.318;2023-07-28T07:51:16;98093.38;;;18.15;100.00
28181;BME280;15464;50.988;10.318;2023-07-28T07:53:43;98097.75;;;18.23;100.00
28181;BME280;15464;50.988;10.318;2023-07-28T07:56:10;98099.66;;;18.29;100.00
28181;BME280;15464;50.988;10.318;2023-07-28T07:58:37;98108.34;;;18.37;100.00
28181;BME280;15464;50.988;10.318;2023-07-28T08:01:03;98095.16;;;18.42;100.00
28181;BME280;15464;50.988;10.318;2023-07-28T08:03:31;98102.63;;;18.53;100.00
28181;BME280;15464;50.988;10.318;2023-07-28T08:06:02;98113.84;;;18.64;100.00
28181;BME280;15464;50.988;10.318;2023-07-28T08:08:29;98101.59;;;18.54;100.00
28181;BME280;15464;50.988;10.318;2023-07-28T08:10:56;98105.56;;;18.65;100.00
28181;BME280;15464;50.988;10.318;2023-07-28T08:13:23;98101.06;;;18.72;100.00
28181;BME280;15464;50.988;10.318;2023-07-28T08:15:50;98108.94;;;19.00;100.00
28181;BME280;15464;50.988;10.318;2023-07-28T08:18:17;98104.84;;;19.17;100.00
28181;BME280;15464;50.988;10.318;2023-07-28T08:20:43;98097.41;;;19.46;100.00
28181;BME280;15464;50.988;10.318;2023-07-28T08:23:10;98111.88;;;19.31;100.00
28181;BME280;15464;50.988;10.318;2023-07-28T08:25:37;98109.81;;;19.33;100.00
28181;BME280;15464;50.988;10.318;2023-07-28T08:28:04;98118.28;;;19.44;100.00
28181;BME280;15464;50.988;10.318;2023-07-28T08:30:31;98117.69;;;19.35;100.00
28181;BME280;15464;50.988;10.318;2023-07-28T08:32:59;98118.50;;;19.36;100.00
28181;BME280;15464;50.988;10.318;2023-07-28T08:35:25;98128.00;;;19.31;100.00
28181;BME280;15464;50.988;10.318;2023-07-28T08:37:52;98134.41;;;19.30;100.00
28181;BME280;15464;50.988;10.318;2023-07-28T08:40:19;98135.03;;;19.19;100.00
28181;BME280;15464;50.988;10.318;2023-07-28T08:42:46;98132.97;;;19.15;100.00
28181;BME280;15464;50.988;10.318;2023-07-28T08:45:14;98143.28;;;18.98;100.00
28181;BME280;15464;50.988;10.318;2023-07-28T08:47:40;98132.13;;;19.08;100.00
28181;BME280;15464;50.988;10.318;2023-07-28T08:50:08;98136.66;;;19.07;100.00
28181;BME280;15464;50.988;10.318;2023-07-28T08:52:34;98132.75;;;19.10;100.00
28181;BME280;15464;50.988;10.318;2023-07-28T08:55:01;98146.41;;;19.15;100.00
28181;BME280;15464;50.988;10.318;2023-07-28T08:57:29;98151.16;;;19.19;100.00
28181;BME280;15464;50.988;10.318;2023-07-28T08:59:55;98154.25;;;19.03;100.00
28181;BME280;15464;50.988;10.318;2023-07-28T09:02:22;98151.38;;;19.05;100.00
28181;BME280;15464;50.988;10.318;2023-07-28T09:04:49;98150.31;;;19.12;100.00
28181;BME280;15464;50.988;10.318;2023-07-28T09:07:16;98154.47;;;19.21;100.00
28181;BME280;15464;50.988;10.318;2023-07-28T09:09:43;98155.31;;;19.28;100.00
28181;BME280;15464;50.988;10.318;2023-07-28T09:12:10;98156.97;;;19.29;100.00
28181;BME280;15464;50.988;10.318;2023-07-28T09:14:38;98155.72;;;19.32;100.00
28181;BME280;15464;50.988;10.318;2023-07-28T09:17:09;98159.66;;;19.29;100.00
28181;BME280;15464;50.988;10.318;2023-07-28T09:19:58;98167.75;;;19.29;100.00
28181;BME280;15464;50.988;10.318;2023-07-28T09:22:24;98167.09;;;19.21;100.00
28181;BME280;15464;50.988;10.318;2023-07-28T09:24:51;98172.47;;;19.27;100.00
28181;BME280;15464;50.988;10.318;2023-07-28T09:27:25;98170.63;;;19.28;99.18
28181;BME280;15464;50.988;10.318;2023-07-28T09:29:53;98167.72;;;19.23;98.95
28181;BME280;15464;50.988;10.318;2023-07-28T09:32:32;98168.53;;;19.37;99.15
28181;BME280;15464;50.988;10.318;2023-07-28T09:35:10;98163.63;;;19.47;98.23
28181;BME280;15464;50.988;10.318;2023-07-28T09:37:39;98166.94;;;19.62;99.30
28181;BME280;15464;50.988;10.318;2023-07-28T09:40:12;98161.75;;;19.80;98.40
28181;BME280;15464;50.988;10.318;2023-07-28T09:42:43;98164.03;;;19.70;96.75
28181;BME280;15464;50.988;10.318;2023-07-28T09:45:22;98159.88;;;19.81;97.48
28181;BME280;15464;50.988;10.318;2023-07-28T09:48:05;98161.53;;;19.88;96.77
28181;BME280;15464;50.988;10.318;2023-07-28T09:50:37;98151.97;;;19.99;96.70
28181;BME280;15464;50.988;10.318;2023-07-28T09:53:09;98157.31;;;20.19;96.80
28181;BME280;15464;50.988;10.318;2023-07-28T09:55:39;98162.28;;;20.28;96.96
28181;BME280;15464;50.988;10.318;2023-07-28T09:58:10;98166.22;;;20.32;94.88
28181;BME280;15464;50.988;10.318;2023-07-28T10:00:39;98170.97;;;20.30;92.96
28181;BME280;15464;50.988;10.318;2023-07-28T10:03:06;98169.09;;;20.44;93.34
28181;BME280;15464;50.988;10.318;2023-07-28T10:05:36;98168.88;;;20.52;93.06
28181;BME280;15464;50.988;10.318;2023-07-28T10:08:04;98170.13;;;20.43;91.02
28181;BME280;15464;50.988;10.318;2023-07-28T10:10:35;98168.41;;;20.55;90.77
28181;BME280;15464;50.988;10.318;2023-07-28T10:13:02;98176.50;;;20.55;91.66
28181;BME280;15464;50.988;10.318;2023-07-28T10:15:32;98175.16;;;20.84;91.50
28181;BME280;15464;50.988;10.318;2023-07-28T10:18:00;98178.09;;;20.76;88.97
28181;BME280;15464;50.988;10.318;2023-07-28T10:20:36;98175.16;;;20.84;88.59
28181;BME280;15464;50.988;10.318;2023-07-28T10:23:06;98177.34;;;21.00;88.80
28181;BME280;15464;50.988;10.318;2023-07-28T10:25:36;98185.38;;;21.07;88.45
28181;BME280;15464;50.988;10.318;2023-07-28T10:28:05;98180.16;;;21.12;88.64
28181;BME280;15464;50.988;10.318;2023-07-28T10:30:35;98186.09;;;20.96;88.18
28181;BME280;15464;50.988;10.318;2023-07-28T10:33:06;98185.66;;;20.99;88.75
28181;BME280;15464;50.988;10.318;2023-07-28T10:35:33;98191.63;;;21.07;89.44
28181;BME280;15464;50.988;10.318;2023-07-28T10:38:29;98186.13;;;21.27;87.95
28181;BME280;15464;50.988;10.318;2023-07-28T10:41:15;98177.38;;;21.31;85.42
28181;BME280;15464;50.988;10.318;2023-07-28T10:43:42;98183.03;;;21.30;86.84
28181;BME280;15464;50.988;10.318;2023-07-28T10:46:13;98197.09;;;21.32;85.40
28181;BME280;15464;50.988;10.318;2023-07-28T10:48:45;98190.38;;;21.10;85.12
28181;BME280;15464;50.988;10.318;2023-07-28T10:51:20;98190.00;;;21.38;83.46
28181;BME280;15464;50.988;10.318;2023-07-28T10:53:50;98199.44;;;21.53;83.54
28181;BME280;15464;50.988;10.318;2023-07-28T10:56:17;98194.41;;;21.32;84.13
28181;BME280;15464;50.988;10.318;2023-07-28T10:58:45;98196.84;;;21.40;83.07
28181;BME280;15464;50.988;10.318;2023-07-28T11:01:12;98195.44;;;21.31;82.81
28181;BME280;15464;50.988;10.318;2023-07-28T11:03:45;98194.59;;;21.30;83.97
28181;BME280;15464;50.988;10.318;2023-07-28T11:06:12;98194.06;;;21.53;83.22
28181;BME280;15464;50.988;10.318;2023-07-28T11:08:40;98188.31;;;21.68;82.46
28181;BME280;15464;50.988;10.318;2023-07-28T11:11:07;98184.81;;;21.92;81.50
28181;BME280;15464;50.988;10.318;2023-07-28T11:13:33;98193.00;;;21.54;79.61
28181;BME280;15464;50.988;10.318;2023-07-28T11:16:07;98183.47;;;21.52;80.70
28181;BME280;15464;50.988;10.318;2023-07-28T11:18:34;98176.19;;;21.52;82.43
28181;BME280;15464;50.988;10.318;2023-07-28T11:21:01;98180.50;;;21.35;82.52
28181;BME280;15464;50.988;10.318;2023-07-28T11:23:27;98185.72;;;21.30;83.91
28181;BME280;15464;50.988;10.318;2023-07-28T11:25:55;98188.22;;;21.25;84.48
28181;BME280;15464;50.988;10.318;2023-07-28T11:28:21;98187.00;;;21.14;83.67
28181;BME280;15464;50.988;10.318;2023-07-28T11:30:48;98190.63;;;21.02;86.32
28181;BME280;15464;50.988;10.318;2023-07-28T11:33:15;98189.63;;;21.34;84.93
28181;BME280;15464;50.988;10.318;2023-07-28T11:35:44;98185.13;;;21.78;85.04
28181;BME280;15464;50.988;10.318;2023-07-28T11:38:11;98176.25;;;22.38;81.59
28181;BME280;15464;50.988;10.318;2023-07-28T11:40:39;98185.19;;;22.57;78.97
28181;BME280;15464;50.988;10.318;2023-07-28T11:43:06;98177.31;;;22.92;78.16
28181;BME280;15464;50.988;10.318;2023-07-28T11:45:33;98182.41;;;22.45;78.14
28181;BME280;15464;50.988;10.318;2023-07-28T11:48:05;98187.19;;;22.62;76.65
28181;BME280;15464;50.988;10.318;2023-07-28T11:50:40;98178.19;;;22.68;78.70
28181;BME280;15464;50.988;10.318;2023-07-28T11:53:10;98179.84;;;22.87;79.49
28181;BME280;15464;50.988;10.318;2023-07-28T11:55:38;98174.59;;;23.22;77.45
28181;BME280;15464;50.988;10.318;2023-07-28T11:58:06;98174.88;;;23.44;76.52
28181;BME280;15464;50.988;10.318;2023-07-28T12:00:39;98184.34;;;23.23;75.30
28181;BME280;15464;50.988;10.318;2023-07-28T12:03:08;98178.16;;;23.04;74.15
28181;BME280;15464;50.988;10.318;2023-07-28T12:06:01;98173.97;;;23.20;75.28
28181;BME280;15464;50.988;10.318;2023-07-28T12:08:35;98183.63;;;22.86;75.89
28181;BME280;15464;50.988;10.318;2023-07-28T12:11:03;98193.22;;;22.64;76.79
28181;BME280;15464;50.988;10.318;2023-07-28T12:13:32;98196.97;;;22.44;76.79
28181;BME280;15464;50.988;10.318;2023-07-28T12:15:59;98201.19;;;22.40;78.25
28181;BME280;15464;50.988;10.318;2023-07-28T12:18:30;98191.69;;;22.31;78.79
28181;BME280;15464;50.988;10.318;2023-07-28T12:21:00;98198.47;;;22.22;78.79
28181;BME280;15464;50.988;10.318;2023-07-28T12:23:27;98195.63;;;22.17;80.26
28181;BME280;15464;50.988;10.318;2023-07-28T12:25:56;98200.94;;;22.24;80.51
28181;BME280;15464;50.988;10.318;2023-07-28T12:28:25;98196.75;;;22.28;80.17
28181;BME280;15464;50.988;10.318;2023-07-28T12:30:52;98197.75;;;22.08;82.74
28181;BME280;15464;50.988;10.318;2023-07-28T12:33:22;98200.69;;;22.25;83.16
28181;BME280;15464;50.988;10.318;2023-07-28T12:35:50;98195.78;;;22.40;84.76
28181;BME280;15464;50.988;10.318;2023-07-28T12:38:18;98196.69;;;22.52;83.18
28181;BME280;15464;50.988;10.318;2023-07-28T12:40:48;98181.06;;;22.91;82.37
28181;BME280;15464;50.988;10.318;2023-07-28T12:43:17;98192.47;;;23.53;82.93
28181;BME280;15464;50.988;10.318;2023-07-28T12:45:47;98185.06;;;23.60;80.35
28181;BME280;15464;50.988;10.318;2023-07-28T12:48:17;98188.34;;;23.62;79.37
28181;BME280;15464;50.988;10.318;2023-07-28T12:50:46;98187.50;;;23.50;80.00
28181;BME280;15464;50.988;10.318;2023-07-28T12:53:13;98181.22;;;23.38;78.88